S32

Cooperstown Municipal Airport

Cooperstown, North Dakota, USA
METAR KS32 181655Z AUTO 26008KT 10SM CLR M06/M08 A2998 RMK AO2
Observed Flight Rules
Nov-18 @ 16:55 UTC (13 minutes ago) Visual Flight Rules
Wind Visibility Clouds
260° at 8 knots 10 miles
  • Clear skies
Temperatures Readings
Current -6°C / 21°F
Dewpoint -8°C / 18°F
Humidity 86%
Altimeter 29.98" Hg
Pressure 1015 hPa
Elevation 684
METAR KS32 181655Z AUTO 26008KT 10SM CLR M06/M08 A2998 RMK AO2
Observed Flight Rules
Nov-18 @ 16:55 UTC
(13 minutes ago)
VFR
Wind Visibility
260° at 8 knots 10 miles
Clouds
  • Clear skies
Temperature Dewpoint
-6°C / 21°F -8°C / 18°F
Humidity Altimeter Pressure
86% 29.98" Hg 1015 hPa